| time (UTC) | temp C | wind direction | speed KPH | gust KPH | rain 1hr cm | rain 24hr cm | rain mn cm | humidity % | barometer mb |
| 20260508041022 | 6 | 0.0 | 0.0 | 0.00 | 0.00 | 0.00 | 64 | 1007.9 | |
| 20260508040019 | 6 | 0.0 | 0.0 | 0.00 | 0.00 | 0.00 | 64 | 1007.9 | |
| 20260508035016 | 6 | 0.0 | 0.0 | 0.00 | 0.00 | 0.00 | 62 | 1007.8 | |
| 20260508034032 | 6 | 0.0 | 0.0 | 0.00 | 0.00 | 0.00 | 64 | 1007.8 | |
| 20260508033017 | 7 | 0.0 | 0.0 | 0.00 | 0.00 | 0.00 | 61 | 1007.9 | |
| 20260508032020 | 7 | 0.0 | 0.0 | 0.00 | 0.00 | 0.00 | 61 | 1007.8 | |
| 20260508031023 | 7 | 0.0 | 0.0 | 0.00 | 0.00 | 0.00 | 59 | 1007.9 | |
| 20260508030027 | 7 | 0.0 | 0.0 | 0.00 | 0.00 | 0.00 | 61 | 1007.7 | |
| 20260508025030 | 7 | 0.0 | 0.0 | 0.00 | 0.00 | 0.00 | 60 | 1007.6 | |
| 20260508024015 | 7 | 0.0 | 0.0 | 0.00 | 0.00 | 0.00 | 58 | 1007.6 | |
| 20260508023019 | 7 | 0.0 | 0.0 | 0.00 | 0.00 | 0.00 | 57 | 1007.7 | |
| 20260508022022 | 8 | 0.0 | 0.0 | 0.00 | 0.00 | 0.00 | 55 | 1007.5 | |
| 20260508021045 | 8 | 0.0 | 0.0 | 0.00 | 0.00 | 0.00 | 53 | 1007.5 | |
| 20260508020049 | 8 | 0.0 | 0.0 | 0.00 | 0.00 | 0.00 | 52 | 1007.4 | |
| 20260508015032 | 8 | 0.0 | 0.0 | 0.00 | 0.00 | 0.00 | 51 | 1007.4 | |
| 20260508014017 | 9 | 0.0 | 0.0 | 0.00 | 0.00 | 0.00 | 49 | 1007.2 | |
| 20260508013020 | 10 | 0.0 | 0.0 | 0.00 | 0.00 | 0.00 | 50 | 1006.9 | |
| 20260508012023 | 10 | 0.0 | 0.0 | 0.00 | 0.00 | 0.00 | 46 | 1006.8 | |
| 20260508011026 | 10 | 0.0 | 0.0 | 0.00 | 0.00 | 0.00 | 44 | 1006.8 | |
| 20260508010030 | 11 | 0.0 | 0.0 | 0.00 | 0.00 | 0.00 | 43 | 1006.5 | |
| 20260508005015 | 11 | 0.0 | 0.0 | 0.00 | 0.00 | 0.00 | 41 | 1006.4 | |
| 20260508004018 | 12 | 225 | 0.0 | 1.6 | 0.00 | 0.00 | 0.00 | 36 | 1006.3 |
| 20260508003022 | 12 | 283 | 1.6 | 4.8 | 0.00 | 0.00 | 0.00 | 36 | 1006.3 |
| 20260508002019 | 12 | 315 | 0.0 | 3.2 | 0.00 | 0.00 | 0.00 | 35 | 1006.3 |
| 20260508001017 | 12 | 0.0 | 0.0 | 0.00 | 0.00 | 0.00 | 34 | 1006.2 | |
| 20260508000032 | 12 | 272 | 0.0 | 4.8 | 0.00 | 0.00 | 0.00 | 34 | 1005.9 |
| 20260507235017 | 13 | 0.0 | 1.6 | 0.00 | 0.00 | 0.00 | 32 | 1006.1 | |
| 20260507234020 | 13 | 2 | 1.6 | 8.0 | 0.00 | 0.00 | 0.00 | 31 | 1006.0 |
| 20260507233023 | 14 | 0.0 | 0.0 | 0.00 | 0.00 | 0.00 | 32 | 1005.8 | |
| 20260507232027 | 14 | 116 | 1.6 | 11.3 | 0.00 | 0.00 | 0.00 | 30 | 1005.6 |
| 20260507231030 | 15 | 241 | 1.6 | 6.4 | 0.00 | 0.00 | 0.00 | 29 | 1005.6 |
| 20260507230015 | 15 | 228 | 1.6 | 8.0 | 0.00 | 0.00 | 0.00 | 28 | 1005.6 |
| 20260507225018 | 16 | 308 | 3.2 | 9.7 | 0.00 | 0.00 | 0.00 | 26 | 1005.5 |
| 20260507224022 | 17 | 212 | 1.6 | 8.0 | 0.00 | 0.00 | 0.00 | 26 | 1005.3 |
| 20260507223025 | 16 | 247 | 3.2 | 9.7 | 0.00 | 0.00 | 0.00 | 26 | 1005.1 |
| 20260507222028 | 17 | 286 | 3.2 | 9.7 | 0.00 | 0.00 | 0.00 | 26 | 1005.1 |
| 20260507221032 | 17 | 321 | 1.6 | 8.0 | 0.00 | 0.00 | 0.00 | 26 | 1005.1 |
| 20260507220017 | 17 | 169 | 1.6 | 4.8 | 0.00 | 0.00 | 0.00 | 25 | 1005.0 |
| 20260507215020 | 18 | 205 | 6.4 | 14.5 | 0.00 | 0.00 | 0.00 | 25 | 1004.9 |
| 20260507214044 | 18 | 207 | 4.8 | 14.5 | 0.00 | 0.00 | 0.00 | 24 | 1004.8 |
| 20260507213026 | 17 | 336 | 3.2 | 12.9 | 0.00 | 0.00 | 0.00 | 26 | 1004.8 |
| 20260507212030 | 18 | 321 | 3.2 | 9.7 | 0.00 | 0.00 | 0.00 | 25 | 1004.8 |
| 20260507211015 | 18 | 237 | 1.6 | 11.3 | 0.00 | 0.00 | 0.00 | 25 | 1004.9 |
| 20260507210018 | 18 | 336 | 3.2 | 8.0 | 0.00 | 0.00 | 0.00 | 25 | 1004.8 |
| 20260507205022 | 18 | 241 | 4.8 | 9.7 | 0.00 | 0.00 | 0.00 | 25 | 1004.7 |
| 20260507204019 | 18 | 300 | 9.7 | 19.3 | 0.00 | 0.00 | 0.00 | 25 | 1004.7 |
| 20260507203016 | 18 | 341 | 3.2 | 8.0 | 0.00 | 0.00 | 0.00 | 25 | 1004.6 |
| 20260507202051 | 18 | 237 | 4.8 | 17.7 | 0.00 | 0.00 | 0.00 | 24 | 1004.8 |
| 20260507201017 | 18 | 254 | 8.0 | 16.1 | 0.00 | 0.00 | 0.00 | 24 | 1004.7 |
| 20260507200020 | 18 | 250 | 6.4 | 16.1 | 0.00 | 0.00 | 0.00 | 25 | 1004.9 |
| 20260507195023 | 18 | 239 | 8.0 | 14.5 | 0.00 | 0.00 | 0.00 | 26 | 1005.0 |
| 20260507194046 | 18 | 266 | 8.0 | 14.5 | 0.00 | 0.00 | 0.00 | 25 | 1005.1 |
| 20260507193030 | 18 | 300 | 6.4 | 11.3 | 0.00 | 0.00 | 0.00 | 26 | 1005.1 |
| 20260507192035 | 18 | 347 | 6.4 | 11.3 | 0.00 | 0.00 | 0.00 | 25 | 1005.2 |
| 20260507191018 | 18 | 277 | 6.4 | 11.3 | 0.00 | 0.00 | 0.00 | 28 | 1005.3 |
| 20260507190021 | 16 | 20 | 1.6 | 6.4 | 0.00 | 0.00 | 0.00 | 30 | 1005.5 |
| 20260507185025 | 17 | 275 | 8.0 | 11.3 | 0.00 | 0.00 | 0.00 | 29 | 1005.5 |
| 20260507184028 | 18 | 4 | 6.4 | 11.3 | 0.00 | 0.00 | 0.00 | 29 | 1005.6 |
| 20260507183031 | 18 | 214 | 8.0 | 16.1 | 0.00 | 0.00 | 0.00 | 28 | 1005.6 |
| 20260507182036 | 18 | 270 | 4.8 | 12.9 | 0.00 | 0.00 | 0.00 | 30 | 1005.7 |
| 20260507181020 | 17 | 306 | 4.8 | 12.9 | 0.00 | 0.00 | 0.00 | 29 | 1005.8 |
| 20260507180043 | 18 | 312 | 6.4 | 11.3 | 0.00 | 0.00 | 0.00 | 30 | 1005.5 |
| 20260507175026 | 17 | 300 | 8.0 | 16.1 | 0.00 | 0.00 | 0.00 | 30 | 1005.6 |
| 20260507174029 | 17 | 233 | 6.4 | 14.5 | 0.00 | 0.00 | 0.00 | 31 | 1005.6 |
| 20260507173014 | 17 | 221 | 8.0 | 14.5 | 0.00 | 0.00 | 0.00 | 30 | 1005.6 |
| 20260507172018 | 17 | 200 | 9.7 | 14.5 | 0.00 | 0.00 | 0.00 | 31 | 1005.7 |
| 20260507171021 | 17 | 199 | 3.2 | 9.7 | 0.00 | 0.00 | 0.00 | 31 | 1005.9 |
| 20260507170018 | 17 | 29 | 4.8 | 9.7 | 0.00 | 0.00 | 0.00 | 30 | 1006.2 |
| 20260507165036 | 17 | 265 | 6.4 | 12.9 | 0.00 | 0.00 | 0.00 | 32 | 1006.1 |
| 20260507164031 | 16 | 320 | 6.4 | 17.7 | 0.00 | 0.00 | 0.00 | 33 | 1006.1 |
| 20260507163016 | 17 | 219 | 6.4 | 12.9 | 0.00 | 0.00 | 0.00 | 34 | 1006.1 |
| 20260507162020 | 17 | 10 | 1.6 | 8.0 | 0.00 | 0.00 | 0.00 | 37 | 1006.3 |
| 20260507161023 | 16 | 239 | 6.4 | 12.9 | 0.00 | 0.00 | 0.00 | 40 | 1006.5 |
| 20260507160026 | 16 | 268 | 6.4 | 11.3 | 0.00 | 0.00 | 0.00 | 45 | 1006.5 |
| 20260507155029 | 15 | 257 | 6.4 | 12.9 | 0.00 | 0.00 | 0.00 | 46 | 1006.6 |
| 20260507154032 | 14 | 320 | 1.6 | 6.4 | 0.00 | 0.00 | 0.00 | 50 | 1006.6 |
| 20260507153038 | 16 | 315 | 0.0 | 3.2 | 0.00 | 0.00 | 0.00 | 47 | 1006.7 |
| 20260507152021 | 15 | 248 | 3.2 | 9.7 | 0.00 | 0.00 | 0.00 | 49 | 1006.9 |
| 20260507151024 | 14 | 257 | 6.4 | 12.9 | 0.00 | 0.00 | 0.00 | 48 | 1006.9 |
| 20260507150027 | 14 | 247 | 8.0 | 12.9 | 0.00 | 0.00 | 0.00 | 49 | 1007.0 |
| 20260507145031 | 15 | 221 | 1.6 | 6.4 | 0.00 | 0.00 | 0.00 | 49 | 1007.0 |
| 20260507144016 | 15 | 220 | 3.2 | 9.7 | 0.00 | 0.00 | 0.00 | 46 | 1006.9 |
| 20260507143059 | 15 | 325 | 3.2 | 12.9 | 0.00 | 0.00 | 0.00 | 47 | 1006.9 |
| 20260507142023 | 14 | 21 | 4.8 | 12.9 | 0.00 | 0.00 | 0.00 | 46 | 1006.9 |
| 20260507141026 | 14 | 10 | 1.6 | 6.4 | 0.00 | 0.00 | 0.00 | 48 | 1006.9 |
| 20260507140029 | 14 | 334 | 6.4 | 11.3 | 0.00 | 0.00 | 0.00 | 49 | 1006.8 |
| 20260507135026 | 13 | 1 | 3.2 | 8.0 | 0.00 | 0.00 | 0.00 | 48 | 1006.9 |
| 20260507134018 | 13 | 27 | 1.6 | 6.4 | 0.00 | 0.00 | 0.00 | 52 | 1007.0 |
| 20260507133021 | 12 | 260 | 3.2 | 8.0 | 0.00 | 0.00 | 0.00 | 53 | 1007.1 |
| 20260507132018 | 12 | 206 | 1.6 | 6.4 | 0.00 | 0.00 | 0.00 | 55 | 1007.3 |
| 20260507131035 | 12 | 237 | 1.6 | 4.8 | 0.00 | 0.00 | 0.00 | 56 | 1007.3 |
| 20260507130030 | 11 | 230 | 1.6 | 6.4 | 0.00 | 0.00 | 0.00 | 58 | 1007.4 |
| 20260507125016 | 11 | 180 | 3.2 | 9.7 | 0.00 | 0.00 | 0.00 | 57 | 1007.4 |
| 20260507124039 | 11 | 180 | 1.6 | 6.4 | 0.00 | 0.00 | 0.00 | 60 | 1007.5 |
| 20260507123042 | 10 | 255 | 1.6 | 8.0 | 0.00 | 0.00 | 0.00 | 64 | 1007.6 |
| 20260507122025 | 10 | 355 | 1.6 | 8.0 | 0.00 | 0.00 | 0.00 | 66 | 1007.6 |
| 20260507121109 | 10 | 205 | 1.6 | 6.4 | 0.00 | 0.00 | 0.00 | 66 | 1007.6 |
| 20260507120032 | 10 | 310 | 1.6 | 9.7 | 0.00 | 0.00 | 0.00 | 66 | 1007.5 |
| 20260507115018 | 10 | 228 | 1.6 | 8.0 | 0.00 | 0.00 | 0.00 | 66 | 1007.3 |
| 20260507114021 | 10 | 0.0 | 3.2 | 0.00 | 0.00 | 0.00 | 69 | 1007.2 | |
| 20260507113044 | 9 | 0.0 | 0.0 | 0.00 | 0.00 | 0.00 | 69 | 1007.1 | |
| 20260507112027 | 9 | 0.0 | 0.0 | 0.00 | 0.00 | 0.00 | 69 | 1007.2 | |
| 20260507111030 | 9 | 315 | 0.0 | 3.2 | 0.00 | 0.00 | 0.00 | 69 | 1007.4 |
| 20260507110016 | 8 | 0.0 | 1.6 | 0.00 | 0.00 | 0.00 | 70 | 1007.1 | |
| 20260507105019 | 8 | 0.0 | 0.0 | 0.00 | 0.00 | 0.00 | 70 | 1006.9 | |
| 20260507104022 | 8 | 293 | 1.6 | 6.4 | 0.00 | 0.00 | 0.00 | 70 | 1006.8 |
| 20260507103025 | 8 | 0.0 | 0.0 | 0.00 | 0.00 | 0.00 | 71 | 1006.8 | |
| 20260507102029 | 8 | 0.0 | 0.0 | 0.00 | 0.00 | 0.00 | 72 | 1007.0 | |
| 20260507101046 | 8 | 0.0 | 0.0 | 0.00 | 0.00 | 0.00 | 72 | 1006.7 | |
| 20260507100017 | 8 | 279 | 1.6 | 8.0 | 0.00 | 0.00 | 0.00 | 73 | 1007.0 |
| 20260507095020 | 8 | 293 | 1.6 | 6.4 | 0.00 | 0.00 | 0.00 | 74 | 1006.9 |
| 20260507094038 | 8 | 0.0 | 0.0 | 0.00 | 0.00 | 0.00 | 75 | 1006.8 | |
| 20260507093015 | 8 | 0.0 | 0.0 | 0.00 | 0.00 | 0.00 | 76 | 1006.7 | |
| 20260507092030 | 8 | 0.0 | 0.0 | 0.00 | 0.00 | 0.00 | 76 | 1007.1 | |
| 20260507091016 | 8 | 0.0 | 0.0 | 0.00 | 0.00 | 0.00 | 76 | 1006.6 | |
| 20260507090019 | 8 | 0.0 | 0.0 | 0.00 | 0.00 | 0.00 | 76 | 1006.7 | |
| 20260507085022 | 8 | 0.0 | 0.0 | 0.00 | 0.00 | 0.00 | 76 | 1006.7 | |
| 20260507084026 | 8 | 270 | 0.0 | 4.8 | 0.00 | 0.00 | 0.00 | 76 | 1006.6 |
| 20260507083029 | 8 | 0.0 | 0.0 | 0.00 | 0.00 | 0.00 | 76 | 1006.4 | |
| 20260507082032 | 9 | 304 | 1.6 | 4.8 | 0.00 | 0.00 | 0.00 | 75 | 1006.6 |
| 20260507081017 | 9 | 0.0 | 0.0 | 0.00 | 0.00 | 0.00 | 74 | 1006.4 | |
| 20260507080021 | 10 | 248 | 0.0 | 3.2 | 0.00 | 0.00 | 0.00 | 73 | 1006.7 |
| 20260507075024 | 10 | 273 | 3.2 | 8.0 | 0.00 | 0.00 | 0.00 | 73 | 1006.6 |
| 20260507074047 | 10 | 0.0 | 3.2 | 0.00 | 0.00 | 0.00 | 74 | 1006.4 | |
| 20260507073050 | 10 | 0.0 | 0.0 | 0.00 | 0.00 | 0.00 | 74 | 1006.2 | |
| 20260507072016 | 10 | 220 | 1.6 | 9.7 | 0.00 | 0.00 | 0.00 | 75 | 1006.1 |
| 20260507071019 | 10 | 333 | 1.6 | 6.4 | 0.00 | 0.00 | 0.00 | 75 | 1006.2 |
| 20260507070022 | 10 | 0.0 | 1.6 | 0.00 | 0.00 | 0.00 | 75 | 1006.0 | |
| 20260507065026 | 10 | 0 | 1.6 | 8.0 | 0.00 | 0.00 | 0.00 | 75 | 1006.0 |
| 20260507064029 | 10 | 296 | 1.6 | 8.0 | 0.00 | 0.00 | 0.00 | 74 | 1005.9 |
| 20260507063026 | 10 | 225 | 1.6 | 6.4 | 0.00 | 0.00 | 0.00 | 74 | 1005.6 |
| 20260507062017 | 10 | 0.0 | 0.0 | 0.00 | 0.00 | 0.00 | 75 | 1005.9 | |
| 20260507061021 | 10 | 315 | 0.0 | 1.6 | 0.00 | 0.00 | 0.00 | 75 | 1006.0 |
| 20260507060018 | 10 | 0.0 | 3.2 | 0.00 | 0.00 | 0.00 | 77 | 1006.2 | |
| 20260507055015 | 10 | 266 | 3.2 | 11.3 | 0.00 | 0.00 | 0.00 | 79 | 1006.4 |
| 20260507054051 | 11 | 248 | 0.0 | 4.8 | 0.00 | 0.00 | 0.00 | 80 | 1006.3 |
| 20260507053016 | 11 | 0.0 | 0.0 | 0.00 | 0.00 | 0.00 | 80 | 1006.1 | |
| 20260507052019 | 11 | 203 | 0.0 | 3.2 | 0.00 | 0.00 | 0.00 | 80 | 1006.5 |
| 20260507051043 | 11 | 158 | 0.0 | 3.2 | 0.00 | 0.00 | 0.00 | 80 | 1006.1 |
| 20260507050046 | 11 | 45 | 1.6 | 6.4 | 0.00 | 0.00 | 0.00 | 80 | 1006.1 |
| 20260507045029 | 11 | 0.0 | 0.0 | 0.00 | 0.00 | 0.00 | 80 | 1006.0 | |
| 20260507044032 | 11 | 270 | 0.0 | 3.2 | 0.00 | 0.00 | 0.00 | 80 | 1006.0 |
| 20260507043038 | 11 | 315 | 0.0 | 3.2 | 0.00 | 0.00 | 0.00 | 80 | 1006.1 |
| 20260507042041 | 12 | 338 | 0.0 | 1.6 | 0.00 | 0.00 | 0.00 | 81 | 1006.4 |